sensor_id;sensor_type;location;lat;lon;timestamp;temperature;humidity
20915;DHT22;10617;52.032;5.298;2023-08-24T00:08:20;20.00;99.90
20915;DHT22;10617;52.032;5.298;2023-08-24T00:12:21;20.00;99.90
20915;DHT22;10617;52.032;5.298;2023-08-24T00:16:25;20.00;99.90
20915;DHT22;10617;52.032;5.298;2023-08-24T00:25:37;20.00;99.90
20915;DHT22;10617;52.032;5.298;2023-08-24T00:29:38;20.00;99.90
20915;DHT22;10617;52.032;5.298;2023-08-24T00:33:40;20.00;99.90
20915;DHT22;10617;52.032;5.298;2023-08-24T00:47:50;19.90;99.90
20915;DHT22;10617;52.032;5.298;2023-08-24T00:51:53;19.90;99.90
20915;DHT22;10617;52.032;5.298;2023-08-24T00:55:55;19.90;99.90
20915;DHT22;10617;52.032;5.298;2023-08-24T00:59:57;19.90;99.90
20915;DHT22;10617;52.032;5.298;2023-08-24T01:04:00;19.90;99.90
20915;DHT22;10617;52.032;5.298;2023-08-24T01:08:02;19.90;99.90
20915;DHT22;10617;52.032;5.298;2023-08-24T01:12:17;19.90;99.90
20915;DHT22;10617;52.032;5.298;2023-08-24T01:16:22;19.90;99.90
20915;DHT22;10617;52.032;5.298;2023-08-24T01:20:29;19.80;99.90
20915;DHT22;10617;52.032;5.298;2023-08-24T01:24:36;19.80;99.90
20915;DHT22;10617;52.032;5.298;2023-08-24T01:28:40;19.70;99.90
20915;DHT22;10617;52.032;5.298;2023-08-24T01:32:42;19.70;99.90
20915;DHT22;10617;52.032;5.298;2023-08-24T01:36:44;19.70;99.90
20915;DHT22;10617;52.032;5.298;2023-08-24T01:44:56;19.70;99.90
20915;DHT22;10617;52.032;5.298;2023-08-24T01:54:04;19.60;99.90
20915;DHT22;10617;52.032;5.298;2023-08-24T01:58:06;19.60;99.90
20915;DHT22;10617;52.032;5.298;2023-08-24T02:02:07;19.60;99.90
20915;DHT22;10617;52.032;5.298;2023-08-24T02:06:09;19.50;99.90
20915;DHT22;10617;52.032;5.298;2023-08-24T02:10:11;19.50;99.90
20915;DHT22;10617;52.032;5.298;2023-08-24T02:14:12;19.50;99.90
20915;DHT22;10617;52.032;5.298;2023-08-24T02:18:14;19.50;99.90
20915;DHT22;10617;52.032;5.298;2023-08-24T02:22:16;19.50;99.90
20915;DHT22;10617;52.032;5.298;2023-08-24T02:26:17;19.50;99.90
20915;DHT22;10617;52.032;5.298;2023-08-24T02:30:19;19.60;99.90
20915;DHT22;10617;52.032;5.298;2023-08-24T02:54:36;19.10;99.90
20915;DHT22;10617;52.032;5.298;2023-08-24T02:58:37;19.00;99.90
20915;DHT22;10617;52.032;5.298;2023-08-24T03:02:39;19.00;99.90
20915;DHT22;10617;52.032;5.298;2023-08-24T03:06:42;18.90;99.90
20915;DHT22;10617;52.032;5.298;2023-08-24T03:10:44;18.90;99.90
20915;DHT22;10617;52.032;5.298;2023-08-24T03:29:57;19.10;99.90
20915;DHT22;10617;52.032;5.298;2023-08-24T03:33:59;19.20;99.90
20915;DHT22;10617;52.032;5.298;2023-08-24T03:38:00;19.20;99.90
20915;DHT22;10617;52.032;5.298;2023-08-24T03:42:02;19.20;99.90
20915;DHT22;10617;52.032;5.298;2023-08-24T03:46:04;19.20;99.90
20915;DHT22;10617;52.032;5.298;2023-08-24T03:50:07;19.20;99.90
20915;DHT22;10617;52.032;5.298;2023-08-24T03:54:08;19.20;99.90
20915;DHT22;10617;52.032;5.298;2023-08-24T03:58:10;19.10;99.90
20915;DHT22;10617;52.032;5.298;2023-08-24T04:02:12;19.10;99.90
20915;DHT22;10617;52.032;5.298;2023-08-24T04:06:13;19.10;99.90
20915;DHT22;10617;52.032;5.298;2023-08-24T04:10:15;19.20;99.90
20915;DHT22;10617;52.032;5.298;2023-08-24T04:14:17;19.10;99.90
20915;DHT22;10617;52.032;5.298;2023-08-24T04:18:18;19.10;99.90
20915;DHT22;10617;52.032;5.298;2023-08-24T04:22:20;19.10;99.90
20915;DHT22;10617;52.032;5.298;2023-08-24T04:26:22;19.10;99.90
20915;DHT22;10617;52.032;5.298;2023-08-24T04:30:24;19.10;99.90
20915;DHT22;10617;52.032;5.298;2023-08-24T04:34:25;19.10;99.90
20915;DHT22;10617;52.032;5.298;2023-08-24T04:38:27;19.00;99.90
20915;DHT22;10617;52.032;5.298;2023-08-24T04:42:29;19.10;99.90
20915;DHT22;10617;52.032;5.298;2023-08-24T04:46:31;19.00;99.90
20915;DHT22;10617;52.032;5.298;2023-08-24T04:50:32;19.00;99.90
20915;DHT22;10617;52.032;5.298;2023-08-24T04:54:34;19.00;99.90
20915;DHT22;10617;52.032;5.298;2023-08-24T04:58:36;19.00;99.90
20915;DHT22;10617;52.032;5.298;2023-08-24T05:02:37;19.00;99.90
20915;DHT22;10617;52.032;5.298;2023-08-24T05:06:39;19.00;99.90
20915;DHT22;10617;52.032;5.298;2023-08-24T05:10:41;19.00;99.90
20915;DHT22;10617;52.032;5.298;2023-08-24T05:14:43;19.00;99.90
20915;DHT22;10617;52.032;5.298;2023-08-24T05:18:44;19.00;99.90
20915;DHT22;10617;52.032;5.298;2023-08-24T05:22:47;19.00;99.90
20915;DHT22;10617;52.032;5.298;2023-08-24T05:26:49;19.10;99.90
20915;DHT22;10617;52.032;5.298;2023-08-24T05:30:51;19.10;99.90
20915;DHT22;10617;52.032;5.298;2023-08-24T05:34:53;19.10;99.90
20915;DHT22;10617;52.032;5.298;2023-08-24T05:38:55;19.20;99.90
20915;DHT22;10617;52.032;5.298;2023-08-24T05:43:06;19.20;99.90
20915;DHT22;10617;52.032;5.298;2023-08-24T05:47:07;19.30;99.90
20915;DHT22;10617;52.032;5.298;2023-08-24T05:51:09;19.30;99.90
20915;DHT22;10617;52.032;5.298;2023-08-24T05:55:13;19.40;99.90
20915;DHT22;10617;52.032;5.298;2023-08-24T05:59:15;19.40;99.90
20915;DHT22;10617;52.032;5.298;2023-08-24T06:03:17;19.50;99.90
20915;DHT22;10617;52.032;5.298;2023-08-24T06:07:18;19.50;99.90
20915;DHT22;10617;52.032;5.298;2023-08-24T06:20:54;19.70;99.90
20915;DHT22;10617;52.032;5.298;2023-08-24T06:24:56;19.80;99.90
20915;DHT22;10617;52.032;5.298;2023-08-24T06:29:01;19.90;99.90
20915;DHT22;10617;52.032;5.298;2023-08-24T06:33:03;20.00;99.90
20915;DHT22;10617;52.032;5.298;2023-08-24T06:37:05;20.10;99.90
20915;DHT22;10617;52.032;5.298;2023-08-24T06:41:06;20.10;99.90
20915;DHT22;10617;52.032;5.298;2023-08-24T06:45:13;20.10;99.90
20915;DHT22;10617;52.032;5.298;2023-08-24T06:49:15;20.20;99.90
20915;DHT22;10617;52.032;5.298;2023-08-24T06:53:17;20.20;99.90
20915;DHT22;10617;52.032;5.298;2023-08-24T06:57:18;20.30;99.90
20915;DHT22;10617;52.032;5.298;2023-08-24T07:11:35;20.60;99.90
20915;DHT22;10617;52.032;5.298;2023-08-24T07:15:37;20.70;99.90
20915;DHT22;10617;52.032;5.298;2023-08-24T07:19:38;20.70;99.90
20915;DHT22;10617;52.032;5.298;2023-08-24T07:23:40;20.80;99.90
20915;DHT22;10617;52.032;5.298;2023-08-24T07:32:17;20.90;99.90
20915;DHT22;10617;52.032;5.298;2023-08-24T07:36:19;21.10;99.90
20915;DHT22;10617;52.032;5.298;2023-08-24T07:40:21;21.20;99.90
20915;DHT22;10617;52.032;5.298;2023-08-24T07:49:26;21.40;99.90
20915;DHT22;10617;52.032;5.298;2023-08-24T07:53:28;21.50;99.90
20915;DHT22;10617;52.032;5.298;2023-08-24T07:57:29;21.60;99.90
20915;DHT22;10617;52.032;5.298;2023-08-24T08:01:31;21.70;99.90
20915;DHT22;10617;52.032;5.298;2023-08-24T08:05:33;21.80;99.90
20915;DHT22;10617;52.032;5.298;2023-08-24T08:09:36;21.90;99.90
20915;DHT22;10617;52.032;5.298;2023-08-24T08:13:37;22.00;99.90
20915;DHT22;10617;52.032;5.298;2023-08-24T08:17:39;22.10;99.90
20915;DHT22;10617;52.032;5.298;2023-08-24T08:21:41;22.10;99.90
20915;DHT22;10617;52.032;5.298;2023-08-24T08:25:43;22.10;99.90
20915;DHT22;10617;52.032;5.298;2023-08-24T08:29:45;22.20;99.90
20915;DHT22;10617;52.032;5.298;2023-08-24T08:43:54;22.30;99.90
20915;DHT22;10617;52.032;5.298;2023-08-24T08:48:00;22.40;99.90
20915;DHT22;10617;52.032;5.298;2023-08-24T08:52:02;22.40;99.90
20915;DHT22;10617;52.032;5.298;2023-08-24T08:56:05;22.40;99.90
20915;DHT22;10617;52.032;5.298;2023-08-24T09:00:07;22.50;99.90
20915;DHT22;10617;52.032;5.298;2023-08-24T09:04:11;22.50;99.90
20915;DHT22;10617;52.032;5.298;2023-08-24T09:08:12;22.60;99.90
20915;DHT22;10617;52.032;5.298;2023-08-24T09:12:14;22.60;99.90
20915;DHT22;10617;52.032;5.298;2023-08-24T09:16:16;22.70;99.90
20915;DHT22;10617;52.032;5.298;2023-08-24T09:20:18;22.80;99.90
20915;DHT22;10617;52.032;5.298;2023-08-24T09:24:20;22.90;99.90
20915;DHT22;10617;52.032;5.298;2023-08-24T09:33:12;23.10;99.90
20915;DHT22;10617;52.032;5.298;2023-08-24T09:37:14;23.30;99.90
20915;DHT22;10617;52.032;5.298;2023-08-24T09:41:19;23.30;99.90
20915;DHT22;10617;52.032;5.298;2023-08-24T09:45:21;23.40;99.90
20915;DHT22;10617;52.032;5.298;2023-08-24T09:49:22;23.50;99.90
20915;DHT22;10617;52.032;5.298;2023-08-24T09:53:24;23.50;99.90
20915;DHT22;10617;52.032;5.298;2023-08-24T09:57:26;23.50;99.90
20915;DHT22;10617;52.032;5.298;2023-08-24T10:01:27;23.50;99.90
20915;DHT22;10617;52.032;5.298;2023-08-24T10:05:30;23.50;99.90
20915;DHT22;10617;52.032;5.298;2023-08-24T10:09:44;23.50;99.90
20915;DHT22;10617;52.032;5.298;2023-08-24T10:17:51;23.40;99.90
20915;DHT22;10617;52.032;5.298;2023-08-24T10:21:53;23.30;99.90
20915;DHT22;10617;52.032;5.298;2023-08-24T10:25:58;23.30;99.90
20915;DHT22;10617;52.032;5.298;2023-08-24T10:30:01;23.20;99.90
20915;DHT22;10617;52.032;5.298;2023-08-24T10:34:04;23.00;99.90
20915;DHT22;10617;52.032;5.298;2023-08-24T10:38:06;23.00;99.90
20915;DHT22;10617;52.032;5.298;2023-08-24T10:42:10;23.00;99.90
20915;DHT22;10617;52.032;5.298;2023-08-24T10:46:12;22.90;99.90
20915;DHT22;10617;52.032;5.298;2023-08-24T10:50:14;22.90;99.90
20915;DHT22;10617;52.032;5.298;2023-08-24T10:54:16;22.90;99.90
20915;DHT22;10617;52.032;5.298;2023-08-24T10:58:33;22.90;99.90
20915;DHT22;10617;52.032;5.298;2023-08-24T11:02:42;22.90;99.90
20915;DHT22;10617;52.032;5.298;2023-08-24T11:06:56;22.90;99.90
20915;DHT22;10617;52.032;5.298;2023-08-24T11:10:58;23.00;99.90
20915;DHT22;10617;52.032;5.298;2023-08-24T11:15:01;22.90;99.90
20915;DHT22;10617;52.032;5.298;2023-08-24T11:24:06;23.00;99.90
20915;DHT22;10617;52.032;5.298;2023-08-24T11:38:16;23.20;99.90
20915;DHT22;10617;52.032;5.298;2023-08-24T11:47:21;23.20;99.90
20915;DHT22;10617;52.032;5.298;2023-08-24T11:51:25;23.30;99.90
20915;DHT22;10617;52.032;5.298;2023-08-24T11:55:42;23.30;99.90
20915;DHT22;10617;52.032;5.298;2023-08-24T11:59:56;23.40;99.90
20915;DHT22;10617;52.032;5.298;2023-08-24T12:03:57;23.50;99.90
20915;DHT22;10617;52.032;5.298;2023-08-24T12:07:59;23.60;99.90
20915;DHT22;10617;52.032;5.298;2023-08-24T12:12:01;23.70;99.90
20915;DHT22;10617;52.032;5.298;2023-08-24T12:16:04;23.80;99.90
20915;DHT22;10617;52.032;5.298;2023-08-24T12:20:06;23.90;99.90
20915;DHT22;10617;52.032;5.298;2023-08-24T12:24:08;23.90;99.90
20915;DHT22;10617;52.032;5.298;2023-08-24T12:28:11;23.90;99.90
20915;DHT22;10617;52.032;5.298;2023-08-24T12:32:13;24.00;99.90
20915;DHT22;10617;52.032;5.298;2023-08-24T12:36:16;24.00;99.90
20915;DHT22;10617;52.032;5.298;2023-08-24T12:40:19;24.00;99.90
20915;DHT22;10617;52.032;5.298;2023-08-24T12:44:22;24.00;99.90
20915;DHT22;10617;52.032;5.298;2023-08-24T12:48:24;24.00;99.90
20915;DHT22;10617;52.032;5.298;2023-08-24T12:52:26;24.10;99.90
20915;DHT22;10617;52.032;5.298;2023-08-24T12:56:27;24.10;99.90
20915;DHT22;10617;52.032;5.298;2023-08-24T13:00:29;24.20;99.90
20915;DHT22;10617;52.032;5.298;2023-08-24T13:04:31;24.50;99.90
20915;DHT22;10617;52.032;5.298;2023-08-24T13:08:34;24.70;99.90
20915;DHT22;10617;52.032;5.298;2023-08-24T13:12:36;24.80;99.90
20915;DHT22;10617;52.032;5.298;2023-08-24T13:16:38;24.80;99.90
20915;DHT22;10617;52.032;5.298;2023-08-24T13:20:40;25.00;99.90
20915;DHT22;10617;52.032;5.298;2023-08-24T13:24:42;25.00;99.90
20915;DHT22;10617;52.032;5.298;2023-08-24T13:28:46;25.00;99.90
20915;DHT22;10617;52.032;5.298;2023-08-24T13:32:47;25.00;99.90
20915;DHT22;10617;52.032;5.298;2023-08-24T13:36:49;25.00;99.90
20915;DHT22;10617;52.032;5.298;2023-08-24T13:40:51;25.00;99.90
20915;DHT22;10617;52.032;5.298;2023-08-24T13:44:52;25.00;99.90
20915;DHT22;10617;52.032;5.298;2023-08-24T13:48:54;24.90;99.90
20915;DHT22;10617;52.032;5.298;2023-08-24T13:52:56;24.80;99.90
20915;DHT22;10617;52.032;5.298;2023-08-24T14:01:55;24.80;99.90
20915;DHT22;10617;52.032;5.298;2023-08-24T14:05:56;24.80;99.90
20915;DHT22;10617;52.032;5.298;2023-08-24T14:09:58;24.80;99.90
20915;DHT22;10617;52.032;5.298;2023-08-24T14:14:06;24.80;99.90
20915;DHT22;10617;52.032;5.298;2023-08-24T14:18:10;24.70;99.90
20915;DHT22;10617;52.032;5.298;2023-08-24T14:22:12;24.70;99.90
20915;DHT22;10617;52.032;5.298;2023-08-24T14:26:14;24.60;99.90
20915;DHT22;10617;52.032;5.298;2023-08-24T14:30:15;24.50;99.90
20915;DHT22;10617;52.032;5.298;2023-08-24T14:34:17;24.50;99.90
20915;DHT22;10617;52.032;5.298;2023-08-24T14:53:21;24.50;99.90
20915;DHT22;10617;52.032;5.298;2023-08-24T14:57:23;24.50;99.90
20915;DHT22;10617;52.032;5.298;2023-08-24T15:01:25;24.50;99.90
20915;DHT22;10617;52.032;5.298;2023-08-24T15:05:27;24.50;99.90
20915;DHT22;10617;52.032;5.298;2023-08-24T15:09:28;24.50;99.90
20915;DHT22;10617;52.032;5.298;2023-08-24T15:13:30;24.50;99.90
20915;DHT22;10617;52.032;5.298;2023-08-24T15:17:32;24.50;99.90
20915;DHT22;10617;52.032;5.298;2023-08-24T15:21:34;24.50;99.90
20915;DHT22;10617;52.032;5.298;2023-08-24T15:25:35;24.50;99.90
20915;DHT22;10617;52.032;5.298;2023-08-24T15:29:37;24.50;99.90
20915;DHT22;10617;52.032;5.298;2023-08-24T15:33:39;24.50;99.90
20915;DHT22;10617;52.032;5.298;2023-08-24T15:37:41;24.50;99.90
20915;DHT22;10617;52.032;5.298;2023-08-24T15:41:43;24.50;99.90
20915;DHT22;10617;52.032;5.298;2023-08-24T15:45:44;24.70;99.90
20915;DHT22;10617;52.032;5.298;2023-08-24T15:49:46;24.90;99.90
20915;DHT22;10617;52.032;5.298;2023-08-24T15:53:48;25.10;99.90
20915;DHT22;10617;52.032;5.298;2023-08-24T15:57:50;25.40;99.90
20915;DHT22;10617;52.032;5.298;2023-08-24T16:01:51;25.50;99.90
20915;DHT22;10617;52.032;5.298;2023-08-24T16:05:56;25.50;99.90
20915;DHT22;10617;52.032;5.298;2023-08-24T16:09:59;25.40;99.90
20915;DHT22;10617;52.032;5.298;2023-08-24T16:14:01;25.20;99.90
20915;DHT22;10617;52.032;5.298;2023-08-24T16:18:04;25.00;99.90
20915;DHT22;10617;52.032;5.298;2023-08-24T16:22:06;24.90;99.90
20915;DHT22;10617;52.032;5.298;2023-08-24T16:31:12;24.80;99.90
20915;DHT22;10617;52.032;5.298;2023-08-24T16:35:14;24.70;99.90
20915;DHT22;10617;52.032;5.298;2023-08-24T16:39:15;24.50;99.90
20915;DHT22;10617;52.032;5.298;2023-08-24T16:53:24;24.50;99.90
20915;DHT22;10617;52.032;5.298;2023-08-24T16:57:25;24.40;99.90
20915;DHT22;10617;52.032;5.298;2023-08-24T17:06:24;24.40;99.90
20915;DHT22;10617;52.032;5.298;2023-08-24T17:10:26;24.30;99.90
20915;DHT22;10617;52.032;5.298;2023-08-24T17:14:27;24.20;99.90
20915;DHT22;10617;52.032;5.298;2023-08-24T17:18:29;24.20;99.90
20915;DHT22;10617;52.032;5.298;2023-08-24T17:22:32;24.20;99.90
20915;DHT22;10617;52.032;5.298;2023-08-24T17:26:34;24.10;99.90
20915;DHT22;10617;52.032;5.298;2023-08-24T17:30:36;24.10;99.90
20915;DHT22;10617;52.032;5.298;2023-08-24T17:34:38;24.00;99.90
20915;DHT22;10617;52.032;5.298;2023-08-24T17:38:40;24.00;99.90
20915;DHT22;10617;52.032;5.298;2023-08-24T17:42:41;23.90;99.90
20915;DHT22;10617;52.032;5.298;2023-08-24T17:46:43;23.90;99.90
20915;DHT22;10617;52.032;5.298;2023-08-24T17:50:54;23.90;99.90
20915;DHT22;10617;52.032;5.298;2023-08-24T17:54:56;23.90;99.90
20915;DHT22;10617;52.032;5.298;2023-08-24T17:58:59;23.90;99.90
20915;DHT22;10617;52.032;5.298;2023-08-24T18:03:01;23.90;99.90
20915;DHT22;10617;52.032;5.298;2023-08-24T18:07:02;23.90;99.90
20915;DHT22;10617;52.032;5.298;2023-08-24T18:11:04;23.90;99.90
20915;DHT22;10617;52.032;5.298;2023-08-24T18:15:06;23.90;99.90
20915;DHT22;10617;52.032;5.298;2023-08-24T18:19:09;23.80;99.90
20915;DHT22;10617;52.032;5.298;2023-08-24T18:23:12;23.80;99.90
20915;DHT22;10617;52.032;5.298;2023-08-24T18:27:13;23.80;99.90
20915;DHT22;10617;52.032;5.298;2023-08-24T18:31:15;23.80;99.90
20915;DHT22;10617;52.032;5.298;2023-08-24T18:35:18;23.70;99.90
20915;DHT22;10617;52.032;5.298;2023-08-24T18:39:19;23.60;99.90
20915;DHT22;10617;52.032;5.298;2023-08-24T18:43:21;23.60;99.90
20915;DHT22;10617;52.032;5.298;2023-08-24T18:47:23;23.50;99.90
20915;DHT22;10617;52.032;5.298;2023-08-24T18:51:25;23.50;99.90
20915;DHT22;10617;52.032;5.298;2023-08-24T18:55:28;23.40;99.90
20915;DHT22;10617;52.032;5.298;2023-08-24T18:59:30;23.40;99.90
20915;DHT22;10617;52.032;5.298;2023-08-24T19:03:31;23.30;99.90
20915;DHT22;10617;52.032;5.298;2023-08-24T19:07:33;23.30;99.90
20915;DHT22;10617;52.032;5.298;2023-08-24T19:11:35;23.30;99.90
20915;DHT22;10617;52.032;5.298;2023-08-24T19:15:36;23.20;99.90
20915;DHT22;10617;52.032;5.298;2023-08-24T19:19:38;23.10;99.90
20915;DHT22;10617;52.032;5.298;2023-08-24T19:23:40;23.10;99.90
20915;DHT22;10617;52.032;5.298;2023-08-24T19:27:42;23.10;99.90
20915;DHT22;10617;52.032;5.298;2023-08-24T19:31:43;23.10;99.90
20915;DHT22;10617;52.032;5.298;2023-08-24T19:35:45;23.10;99.90
20915;DHT22;10617;52.032;5.298;2023-08-24T19:39:47;23.10;99.90
20915;DHT22;10617;52.032;5.298;2023-08-24T19:43:48;23.20;99.90
20915;DHT22;10617;52.032;5.298;2023-08-24T19:47:50;23.20;99.90
20915;DHT22;10617;52.032;5.298;2023-08-24T19:51:52;23.20;99.90
20915;DHT22;10617;52.032;5.298;2023-08-24T20:11:05;23.00;99.90
20915;DHT22;10617;52.032;5.298;2023-08-24T20:15:07;23.00;99.90
20915;DHT22;10617;52.032;5.298;2023-08-24T20:19:12;23.00;99.90
20915;DHT22;10617;52.032;5.298;2023-08-24T20:23:14;22.90;99.90
20915;DHT22;10617;52.032;5.298;2023-08-24T20:27:16;22.80;99.90
20915;DHT22;10617;52.032;5.298;2023-08-24T20:31:19;22.80;99.90
20915;DHT22;10617;52.032;5.298;2023-08-24T20:35:20;22.80;99.90
20915;DHT22;10617;52.032;5.298;2023-08-24T20:39:22;22.70;99.90
20915;DHT22;10617;52.032;5.298;2023-08-24T20:43:24;22.70;99.90
20915;DHT22;10617;52.032;5.298;2023-08-24T20:47:26;22.70;99.90
20915;DHT22;10617;52.032;5.298;2023-08-24T20:51:28;22.50;99.90
20915;DHT22;10617;52.032;5.298;2023-08-24T20:55:30;22.40;99.90
20915;DHT22;10617;52.032;5.298;2023-08-24T20:59:33;22.30;99.90
20915;DHT22;10617;52.032;5.298;2023-08-24T21:03:35;22.20;99.90
20915;DHT22;10617;52.032;5.298;2023-08-24T21:07:37;22.10;99.90
20915;DHT22;10617;52.032;5.298;2023-08-24T21:16:48;22.00;99.90
20915;DHT22;10617;52.032;5.298;2023-08-24T21:36:09;22.10;99.90
20915;DHT22;10617;52.032;5.298;2023-08-24T21:40:14;22.20;99.90
20915;DHT22;10617;52.032;5.298;2023-08-24T21:44:16;22.20;99.90
20915;DHT22;10617;52.032;5.298;2023-08-24T21:48:18;22.20;99.90
20915;DHT22;10617;52.032;5.298;2023-08-24T21:52:19;22.20;99.90
20915;DHT22;10617;52.032;5.298;2023-08-24T21:56:21;22.10;99.90
20915;DHT22;10617;52.032;5.298;2023-08-24T22:00:23;22.20;99.90
20915;DHT22;10617;52.032;5.298;2023-08-24T22:04:25;22.20;99.90
20915;DHT22;10617;52.032;5.298;2023-08-24T22:08:26;22.10;99.90
20915;DHT22;10617;52.032;5.298;2023-08-24T22:12:28;22.00;99.90
20915;DHT22;10617;52.032;5.298;2023-08-24T22:16:30;22.00;99.90
20915;DHT22;10617;52.032;5.298;2023-08-24T22:20:31;22.00;99.90
20915;DHT22;10617;52.032;5.298;2023-08-24T22:24:33;21.90;99.90
20915;DHT22;10617;52.032;5.298;2023-08-24T22:28:35;21.90;99.90
20915;DHT22;10617;52.032;5.298;2023-08-24T23:02:49;21.80;99.90
20915;DHT22;10617;52.032;5.298;2023-08-24T23:10:55;21.60;99.90
20915;DHT22;10617;52.032;5.298;2023-08-24T23:14:57;21.50;99.90
20915;DHT22;10617;52.032;5.298;2023-08-24T23:29:31;21.50;99.90
20915;DHT22;10617;52.032;5.298;2023-08-24T23:33:33;21.40;99.90
20915;DHT22;10617;52.032;5.298;2023-08-24T23:37:34;21.40;99.90
20915;DHT22;10617;52.032;5.298;2023-08-24T23:41:36;21.40;99.90
20915;DHT22;10617;52.032;5.298;2023-08-24T23:45:38;21.30;99.90
20915;DHT22;10617;52.032;5.298;2023-08-24T23:54:43;21.30;99.90
20915;DHT22;10617;52.032;5.298;2023-08-24T23:58:45;21.30;99.90
